Time;durP1;ratioP1;P1;durP2;ratioP2;P2;SDS_P1;SDS_P2;PMS_P1;PMS_P2;Temp;Humidity;BMP_temperature;BMP_pressure;BME280_temperature;BME280_humidity;BME280_pressure;Samples;Min_cycle;Max_cycle;Signal;HPM_P1;HPM_P2
2024/01/19 00:01:28;;;;;;;11.57;6.07;;;2.10;15.80;;;;;;5043968;28;20473;-72
2024/01/19 00:03:56;;;;;;;12.63;5.73;;;2.10;15.90;;;;;;5052211;28;21197;-72
2024/01/19 00:06:23;;;;;;;10.67;6.10;;;2.10;15.80;;;;;;5048529;28;21192;-72
2024/01/19 00:08:50;;;;;;;9.37;5.50;;;2.10;15.90;;;;;;5052095;28;20474;-71
2024/01/19 00:11:18;;;;;;;11.57;6.03;;;2.10;16.00;;;;;;5051071;28;20473;-71
2024/01/19 00:13:45;;;;;;;11.23;6.10;;;2.00;15.90;;;;;;5049356;28;20476;-71
2024/01/19 00:16:11;;;;;;;12.57;5.40;;;2.00;16.00;;;;;;5049051;28;21118;-71
2024/01/19 00:18:38;;;;;;;9.07;5.40;;;2.00;16.10;;;;;;5048840;28;20900;-71
2024/01/19 00:21:07;;;;;;;12.27;5.63;;;2.00;16.20;;;;;;5062824;23;21066;-69
2024/01/19 00:23:34;;;;;;;9.20;5.73;;;1.90;16.20;;;;;;5048562;28;20548;-68
2024/01/19 00:26:01;;;;;;;11.40;6.03;;;1.90;16.20;;;;;;5049417;28;20486;-69
2024/01/19 00:28:27;;;;;;;7.90;5.30;;;2.00;16.30;;;;;;5042187;28;20513;-69
2024/01/19 00:30:54;;;;;;;11.60;5.67;;;2.00;16.30;;;;;;5044595;28;20561;-69
2024/01/19 00:33:21;;;;;;;13.80;4.93;;;2.00;16.80;;;;;;5044410;28;20462;-69
2024/01/19 00:35:48;;;;;;;12.00;6.20;;;2.00;16.30;;;;;;5047815;28;20654;-69
2024/01/19 00:38:16;;;;;;;9.00;4.90;;;2.00;16.40;;;;;;5042349;28;20490;-69
2024/01/19 00:40:44;;;;;;;9.00;5.97;;;1.90;16.50;;;;;;5047488;28;20454;-69
2024/01/19 00:43:11;;;;;;;10.00;6.13;;;1.90;16.50;;;;;;5047251;28;20466;-69
2024/01/19 00:45:38;;;;;;;10.87;6.63;;;1.90;16.60;;;;;;5047540;28;20466;-69
2024/01/19 00:48:05;;;;;;;14.43;6.83;;;1.90;16.70;;;;;;5047633;28;20482;-69
2024/01/19 00:50:32;;;;;;;11.93;6.47;;;1.80;16.60;;;;;;5044940;28;20557;-70
2024/01/19 00:52:59;;;;;;;9.67;5.90;;;1.90;16.60;;;;;;5045513;28;20469;-69
2024/01/19 00:55:27;;;;;;;10.93;6.40;;;1.90;16.60;;;;;;5046102;28;20466;-69
2024/01/19 00:57:54;;;;;;;13.80;6.83;;;1.90;16.70;;;;;;5043273;28;20566;-69
2024/01/19 01:00:21;;;;;;;10.07;6.17;;;1.80;16.60;;;;;;5040182;28;20556;-69
2024/01/19 01:02:48;;;;;;;11.80;6.20;;;1.80;16.60;;;;;;5045648;28;20472;-69
2024/01/19 01:05:15;;;;;;;12.10;6.03;;;1.80;16.60;;;;;;5046747;28;20465;-70
2024/01/19 01:07:42;;;;;;;10.00;6.27;;;1.70;16.60;;;;;;5043638;28;20479;-69
2024/01/19 01:10:10;;;;;;;12.57;7.13;;;1.70;16.60;;;;;;5043575;28;20457;-69
2024/01/19 01:12:38;;;;;;;13.07;6.50;;;1.70;16.70;;;;;;5042515;28;20467;-72
2024/01/19 01:15:06;;;;;;;11.00;6.87;;;1.70;16.70;;;;;;5039407;28;20554;-71
2024/01/19 01:17:32;;;;;;;12.77;7.43;;;1.70;16.70;;;;;;5045639;28;20589;-70
2024/01/19 01:19:59;;;;;;;14.10;6.80;;;1.70;16.80;;;;;;5044793;28;20458;-70
2024/01/19 01:22:26;;;;;;;11.80;6.53;;;1.60;16.80;;;;;;5046462;28;20669;-70
2024/01/19 01:24:53;;;;;;;10.30;5.70;;;1.60;16.90;;;;;;5047566;28;20885;-70
2024/01/19 01:27:20;;;;;;;12.43;6.90;;;1.60;17.00;;;;;;5043262;28;20994;-70
2024/01/19 01:29:48;;;;;;;10.23;6.37;;;1.60;17.00;;;;;;5048379;28;20449;-69
2024/01/19 01:32:15;;;;;;;12.03;6.33;;;1.60;17.10;;;;;;5044732;28;20853;-69
2024/01/19 01:34:42;;;;;;;16.10;7.57;;;1.60;17.20;;;;;;5046310;28;20457;-70
2024/01/19 01:37:08;;;;;;;11.87;6.90;;;1.50;17.30;;;;;;5046217;28;20488;-69
2024/01/19 01:39:35;;;;;;;18.10;7.03;;;1.50;17.40;;;;;;5054964;28;20514;-69
2024/01/19 01:42:02;;;;;;;12.20;7.27;;;1.50;17.60;;;;;;5066105;28;20446;-70
2024/01/19 01:44:29;;;;;;;12.40;6.97;;;1.60;17.60;;;;;;5058827;28;20481;-70
2024/01/19 01:46:57;;;;;;;14.00;6.77;;;1.50;17.70;;;;;;5044385;28;20894;-70
2024/01/19 01:49:24;;;;;;;12.10;6.60;;;1.50;17.80;;;;;;5042922;28;20458;-70
2024/01/19 01:51:51;;;;;;;10.57;6.90;;;1.50;17.80;;;;;;5047985;28;20574;-70
2024/01/19 01:54:18;;;;;;;14.13;7.17;;;1.60;17.80;;;;;;5046624;28;20454;-70
2024/01/19 01:56:45;;;;;;;12.90;7.77;;;1.60;17.90;;;;;;5046174;28;20557;-70
2024/01/19 01:59:12;;;;;;;14.00;7.47;;;1.60;18.00;;;;;;5041419;28;20537;-70
2024/01/19 02:01:39;;;;;;;9.70;6.87;;;1.60;17.90;;;;;;5046467;28;21148;-70
2024/01/19 02:04:09;;;;;;;11.33;6.53;;;1.60;17.90;;;;;;5042044;28;20456;-70
2024/01/19 02:06:36;;;;;;;12.37;6.70;;;1.60;17.90;;;;;;5046632;28;20486;-70
2024/01/19 02:09:03;;;;;;;16.60;7.17;;;1.60;17.90;;;;;;5050258;28;20537;-69
2024/01/19 02:11:30;;;;;;;12.87;7.33;;;1.60;17.80;;;;;;5050077;28;20566;-69
2024/01/19 02:13:57;;;;;;;15.60;7.67;;;1.60;17.70;;;;;;5045404;28;20450;-69
2024/01/19 02:16:23;;;;;;;14.43;6.57;;;1.60;17.60;;;;;;5045492;28;20454;-69
2024/01/19 02:18:50;;;;;;;12.57;6.40;;;1.70;17.60;;;;;;5046993;28;20462;-69
2024/01/19 02:21:19;;;;;;;10.93;5.80;;;1.70;17.70;;;;;;5050479;28;20476;-69
2024/01/19 02:23:54;;;;;;;12.00;7.43;;;1.60;17.60;;;;;;5049902;28;21111;-69
2024/01/19 02:26:23;;;;;;;14.00;7.07;;;1.70;17.80;;;;;;5049191;28;20900;-68
2024/01/19 02:28:51;;;;;;;14.60;9.13;;;1.70;17.80;;;;;;5049013;28;20464;-69
2024/01/19 02:31:17;;;;;;;13.20;7.47;;;1.70;17.80;;;;;;5043731;28;20546;-69
2024/01/19 02:33:44;;;;;;;11.67;7.37;;;1.70;17.80;;;;;;5045080;28;20540;-69
2024/01/19 02:36:11;;;;;;;15.77;7.87;;;1.60;17.80;;;;;;5047905;28;20456;-69
2024/01/19 02:38:38;;;;;;;14.57;7.13;;;1.70;17.90;;;;;;5050004;28;20525;-70
2024/01/19 02:41:05;;;;;;;16.00;7.40;;;1.70;17.90;;;;;;5049499;28;20976;-70
2024/01/19 02:43:33;;;;;;;14.33;8.10;;;1.70;18.00;;;;;;5047974;28;20551;-70
2024/01/19 02:46:00;;;;;;;12.83;7.10;;;1.60;17.90;;;;;;5051459;28;20458;-70
2024/01/19 02:48:27;;;;;;;14.20;8.30;;;1.70;18.10;;;;;;5050516;28;20492;-71
2024/01/19 02:50:54;;;;;;;14.93;9.43;;;1.70;18.00;;;;;;5050471;28;20548;-70
2024/01/19 02:53:21;;;;;;;14.63;9.80;;;1.80;18.00;;;;;;5049842;28;20805;-70
2024/01/19 02:55:48;;;;;;;15.90;9.17;;;1.80;18.10;;;;;;5043825;28;20446;-70
2024/01/19 02:58:15;;;;;;;15.77;9.43;;;1.80;18.10;;;;;;5049408;28;20470;-71
2024/01/19 03:00:44;;;;;;;17.50;10.30;;;1.80;18.10;;;;;;5045990;28;20546;-70
2024/01/19 03:03:10;;;;;;;15.40;9.90;;;1.80;18.10;;;;;;5047627;28;20556;-69
2024/01/19 03:05:37;;;;;;;15.53;10.17;;;1.80;18.10;;;;;;5049591;28;20454;-70
2024/01/19 03:08:04;;;;;;;13.03;9.90;;;1.80;18.00;;;;;;5047271;28;21019;-70
2024/01/19 03:10:31;;;;;;;14.57;9.87;;;1.80;18.10;;;;;;5043660;28;20498;-70
2024/01/19 03:12:58;;;;;;;18.07;10.13;;;1.80;18.00;;;;;;5047890;28;20462;-69
2024/01/19 03:15:25;;;;;;;18.50;10.73;;;1.80;18.30;;;;;;5046611;28;20458;-70
2024/01/19 03:17:54;;;;;;;14.00;8.50;;;1.80;17.80;;;;;;5050169;28;20555;-69
2024/01/19 03:20:20;;;;;;;19.27;9.77;;;1.80;17.70;;;;;;5048387;28;20458;-70
2024/01/19 03:22:47;;;;;;;16.13;9.30;;;1.80;17.70;;;;;;5048027;28;20461;-69
2024/01/19 03:25:14;;;;;;;16.47;9.63;;;1.70;17.80;;;;;;5045875;28;20454;-69
2024/01/19 03:27:41;;;;;;;19.30;9.87;;;1.70;17.80;;;;;;5049976;28;20976;-69
2024/01/19 03:30:08;;;;;;;19.87;11.13;;;1.70;17.80;;;;;;5048620;28;20464;-69
2024/01/19 03:32:35;;;;;;;22.97;12.60;;;1.70;17.80;;;;;;5047468;28;21067;-70
2024/01/19 03:35:04;;;;;;;23.90;13.57;;;1.70;17.90;;;;;;5047559;28;20542;-69
2024/01/19 03:37:30;;;;;;;27.20;16.07;;;1.70;18.10;;;;;;5050349;28;20557;-69
2024/01/19 03:39:57;;;;;;;29.00;16.20;;;1.70;18.20;;;;;;5047607;28;20537;-70
2024/01/19 03:42:26;;;;;;;32.63;15.10;;;1.70;18.20;;;;;;5047059;28;20538;-69
2024/01/19 03:44:53;;;;;;;29.20;17.57;;;1.70;18.30;;;;;;5047145;28;20515;-71
2024/01/19 03:47:19;;;;;;;25.40;14.90;;;1.70;18.50;;;;;;5046346;28;20997;-70
2024/01/19 03:49:46;;;;;;;27.13;15.60;;;1.70;18.40;;;;;;5046804;28;20458;-70
2024/01/19 03:52:16;;;;;;;21.93;13.40;;;1.70;18.30;;;;;;5046330;28;20462;-71
2024/01/19 03:54:43;;;;;;;20.27;11.70;;;1.60;18.10;;;;;;5048084;28;20469;-70
2024/01/19 03:57:10;;;;;;;21.13;10.63;;;1.60;17.90;;;;;;5048408;28;21061;-70
2024/01/19 03:59:37;;;;;;;15.67;9.83;;;1.50;17.60;;;;;;5046931;28;20980;-70
2024/01/19 04:02:05;;;;;;;18.13;11.10;;;1.40;17.40;;;;;;5047286;28;20907;-70
2024/01/19 04:04:32;;;;;;;17.10;10.27;;;1.30;17.20;;;;;;5045639;28;20484;-70
2024/01/19 04:06:59;;;;;;;18.13;10.33;;;1.30;17.40;;;;;;5044210;28;20474;-70
2024/01/19 04:09:27;;;;;;;22.60;11.87;;;1.30;17.10;;;;;;5044393;28;20454;-71
2024/01/19 04:11:54;;;;;;;20.53;10.40;;;1.20;17.00;;;;;;5048915;28;20504;-70
2024/01/19 04:14:21;;;;;;;20.60;9.07;;;1.10;17.00;;;;;;5047150;28;20462;-71
2024/01/19 04:16:48;;;;;;;21.93;11.33;;;1.10;17.20;;;;;;5046855;28;20482;-70
2024/01/19 04:19:16;;;;;;;17.20;10.47;;;1.10;17.10;;;;;;5042283;28;20547;-70
2024/01/19 04:21:43;;;;;;;20.40;10.73;;;1.00;17.30;;;;;;5045394;28;20537;-70
2024/01/19 04:24:09;;;;;;;22.53;12.23;;;1.00;17.20;;;;;;5047435;28;20968;-70
2024/01/19 04:26:38;;;;;;;23.33;12.73;;;1.00;17.20;;;;;;5045980;28;21038;-71
2024/01/19 04:29:04;;;;;;;21.13;11.73;;;1.00;17.40;;;;;;5047448;28;20592;-69
2024/01/19 04:31:31;;;;;;;18.70;11.60;;;0.90;17.40;;;;;;5043588;28;20569;-70
2024/01/19 04:33:58;;;;;;;21.57;12.00;;;0.90;17.60;;;;;;5046327;28;20804;-69
2024/01/19 04:36:25;;;;;;;22.67;11.73;;;0.90;17.60;;;;;;5045399;28;20998;-72
2024/01/19 04:38:52;;;;;;;24.20;13.07;;;0.80;17.70;;;;;;5046122;28;20450;-70
2024/01/19 04:41:19;;;;;;;23.97;12.43;;;0.80;17.80;;;;;;5047143;28;20456;-69
2024/01/19 04:43:47;;;;;;;18.37;9.40;;;0.80;17.80;;;;;;5048506;28;20533;-69
2024/01/19 04:46:14;;;;;;;16.90;10.60;;;0.70;17.80;;;;;;5067208;28;20525;-69
2024/01/19 04:48:41;;;;;;;16.00;10.10;;;0.70;17.90;;;;;;5065680;28;20509;-69
2024/01/19 04:51:08;;;;;;;18.97;9.77;;;0.70;17.80;;;;;;5048881;28;20534;-70
2024/01/19 04:53:35;;;;;;;15.80;9.67;;;0.60;17.80;;;;;;5045304;28;20523;-69
2024/01/19 04:56:05;;;;;;;16.63;9.30;;;0.60;17.70;;;;;;5046408;28;21136;-70
2024/01/19 04:58:32;;;;;;;18.53;11.03;;;0.50;17.80;;;;;;5041851;28;20485;-69
2024/01/19 05:01:00;;;;;;;17.40;8.80;;;0.40;17.70;;;;;;5045048;28;20469;-70
2024/01/19 05:03:27;;;;;;;19.40;9.50;;;0.40;17.90;;;;;;5047200;28;20553;-69
2024/01/19 05:05:54;;;;;;;16.53;8.87;;;0.30;17.80;;;;;;5048938;28;20553;-69
2024/01/19 05:08:21;;;;;;;19.13;9.57;;;0.30;17.90;;;;;;5049157;28;20481;-69
2024/01/19 05:10:48;;;;;;;15.70;9.17;;;0.20;17.90;;;;;;5046514;28;20969;-69
2024/01/19 05:13:15;;;;;;;15.53;8.10;;;0.10;18.00;;;;;;5046072;28;20457;-69
2024/01/19 05:15:43;;;;;;;18.43;9.23;;;0.10;18.00;;;;;;5046734;28;20481;-69
2024/01/19 05:18:11;;;;;;;22.30;10.33;;;0.00;18.10;;;;;;5048871;28;20472;-69
2024/01/19 05:20:39;;;;;;;19.80;9.30;;;0.00;18.20;;;;;;5047652;28;20469;-69
2024/01/19 05:23:06;;;;;;;15.07;9.57;;;0.00;18.30;;;;;;5045376;28;20808;-69
2024/01/19 05:25:33;;;;;;;22.97;9.73;;;0.00;18.40;;;;;;5046934;28;20520;-70
2024/01/19 05:28:00;;;;;;;19.03;9.70;;;0.00;18.50;;;;;;5041403;28;20481;-70
2024/01/19 05:30:27;;;;;;;13.10;7.70;;;0.00;18.50;;;;;;5043745;28;20518;-69
2024/01/19 05:32:54;;;;;;;15.37;7.90;;;-0.10;18.50;;;;;;5041421;28;20472;-69
2024/01/19 05:35:22;;;;;;;14.80;8.10;;;-0.10;18.50;;;;;;5044042;28;20470;-70
2024/01/19 05:37:49;;;;;;;16.93;9.30;;;-0.20;18.50;;;;;;5045163;28;20569;-69
2024/01/19 05:40:16;;;;;;;16.13;8.67;;;-0.10;18.70;;;;;;5048036;28;20531;-70
2024/01/19 05:42:43;;;;;;;18.07;8.70;;;-0.10;18.60;;;;;;5044031;28;20581;-70
2024/01/19 05:45:10;;;;;;;17.60;8.13;;;-0.10;18.70;;;;;;5044073;28;20758;-70
2024/01/19 05:47:37;;;;;;;18.40;9.73;;;-0.10;18.80;;;;;;5046054;28;20478;-71
2024/01/19 05:50:04;;;;;;;15.40;8.90;;;-0.10;18.80;;;;;;5046645;28;20458;-70
2024/01/19 05:52:33;;;;;;;16.20;9.80;;;-0.10;18.90;;;;;;5047746;28;20457;-69
2024/01/19 05:55:00;;;;;;;23.03;10.00;;;-0.10;18.90;;;;;;5048893;28;20464;-69
2024/01/19 05:57:26;;;;;;;17.70;9.50;;;-0.10;19.00;;;;;;5049163;28;20480;-71
2024/01/19 05:59:53;;;;;;;15.93;9.60;;;0.00;19.00;;;;;;5048047;28;20541;-69
2024/01/19 06:02:21;;;;;;;15.63;9.47;;;-0.10;19.00;;;;;;5046115;28;21049;-69
2024/01/19 06:04:48;;;;;;;22.30;12.10;;;-0.10;19.10;;;;;;5046665;28;20446;-70
2024/01/19 06:07:15;;;;;;;21.30;12.30;;;-0.10;19.10;;;;;;5044713;28;20481;-70
2024/01/19 06:09:43;;;;;;;29.03;12.73;;;0.00;19.10;;;;;;5047895;28;20573;-70
2024/01/19 06:12:10;;;;;;;22.27;12.00;;;0.00;19.10;;;;;;5044174;28;20940;-70
2024/01/19 06:14:37;;;;;;;18.97;10.40;;;0.00;19.20;;;;;;5048172;28;20454;-69
2024/01/19 06:17:04;;;;;;;23.37;11.73;;;0.10;19.30;;;;;;5047953;28;20989;-69
2024/01/19 06:19:31;;;;;;;14.77;9.17;;;0.10;19.40;;;;;;5059301;23;20509;-69
2024/01/19 06:21:58;;;;;;;19.70;10.90;;;0.10;19.40;;;;;;5028730;28;21038;-69
2024/01/19 06:24:25;;;;;;;22.73;10.20;;;0.20;19.30;;;;;;5025474;28;20469;-68
2024/01/19 06:26:53;;;;;;;16.03;9.43;;;0.20;19.20;;;;;;5032929;28;20476;-69
2024/01/19 06:29:20;;;;;;;17.93;11.30;;;0.20;19.20;;;;;;5044071;28;20480;-69
2024/01/19 06:31:48;;;;;;;22.33;13.17;;;0.20;19.20;;;;;;5036260;28;20466;-68
2024/01/19 06:34:15;;;;;;;20.10;11.97;;;0.30;19.20;;;;;;5040008;28;20464;-68
2024/01/19 06:36:44;;;;;;;19.10;11.33;;;0.30;19.20;;;;;;5039732;28;20577;-69
2024/01/19 06:39:11;;;;;;;20.87;13.50;;;0.30;19.20;;;;;;5041632;28;20453;-69
2024/01/19 06:41:42;;;;;;;18.57;11.20;;;0.30;19.10;;;;;;5043056;28;20451;-69
2024/01/19 06:44:10;;;;;;;19.90;13.00;;;0.30;19.10;;;;;;5047068;28;20454;-69
2024/01/19 06:46:37;;;;;;;22.27;10.93;;;0.30;19.10;;;;;;5046281;28;20469;-69
2024/01/19 06:49:04;;;;;;;19.93;12.90;;;0.30;19.20;;;;;;5040410;28;20482;-68
2024/01/19 06:51:32;;;;;;;29.10;15.13;;;0.30;19.20;;;;;;5035877;28;20454;-70
2024/01/19 06:53:59;;;;;;;23.30;11.80;;;0.30;19.10;;;;;;5042009;28;20515;-70
2024/01/19 06:56:26;;;;;;;20.87;11.57;;;0.40;19.00;;;;;;5040606;28;20463;-69
2024/01/19 06:58:54;;;;;;;22.57;13.47;;;0.40;19.00;;;;;;5043107;28;20455;-68
2024/01/19 07:01:22;;;;;;;17.47;11.10;;;0.40;19.00;;;;;;5041923;28;20462;-68
2024/01/19 07:03:49;;;;;;;19.13;12.40;;;0.40;18.90;;;;;;5039349;28;20891;-68
2024/01/19 07:06:16;;;;;;;22.83;13.23;;;0.40;18.90;;;;;;5047564;28;20496;-68
2024/01/19 07:08:44;;;;;;;28.23;13.17;;;0.40;18.90;;;;;;5043857;28;20485;-68
2024/01/19 07:11:11;;;;;;;29.17;15.87;;;0.40;18.80;;;;;;5039336;28;20457;-69
2024/01/19 07:13:38;;;;;;;37.43;21.33;;;0.40;18.90;;;;;;5037183;28;20458;-69
2024/01/19 07:16:07;;;;;;;29.77;17.03;;;0.50;18.90;;;;;;5035857;28;20548;-69
2024/01/19 07:18:36;;;;;;;25.60;13.60;;;0.50;19.00;;;;;;5041259;28;20452;-69
2024/01/19 07:21:03;;;;;;;21.20;11.90;;;0.50;18.90;;;;;;5046033;28;20458;-69
2024/01/19 07:23:29;;;;;;;23.93;14.63;;;0.50;18.90;;;;;;5034718;28;20542;-69
2024/01/19 07:25:56;;;;;;;24.57;14.20;;;0.50;19.00;;;;;;5044772;28;20463;-70
2024/01/19 07:28:23;;;;;;;24.03;14.10;;;0.50;19.10;;;;;;5048345;28;21088;-68
2024/01/19 07:30:50;;;;;;;29.33;14.77;;;0.60;19.20;;;;;;5040417;28;20488;-68
2024/01/19 07:33:17;;;;;;;23.53;13.30;;;0.60;19.10;;;;;;5033907;28;20451;-68
2024/01/19 07:35:45;;;;;;;22.60;12.97;;;0.60;19.20;;;;;;5037183;28;20466;-69
2024/01/19 07:38:12;;;;;;;24.77;14.17;;;0.70;19.20;;;;;;5037125;28;20561;-70
2024/01/19 07:40:39;;;;;;;24.40;13.10;;;0.70;19.20;;;;;;5041457;28;20829;-69
2024/01/19 07:43:06;;;;;;;23.10;14.13;;;0.80;19.20;;;;;;5045207;28;20455;-69
2024/01/19 07:45:32;;;;;;;22.40;13.03;;;0.80;19.10;;;;;;5044674;28;20464;-69
2024/01/19 07:47:59;;;;;;;23.53;13.77;;;0.90;19.00;;;;;;5035044;28;20519;-68
2024/01/19 07:50:26;;;;;;;21.17;13.70;;;1.00;19.00;;;;;;5040204;28;20454;-69
2024/01/19 07:52:54;;;;;;;27.43;13.77;;;1.00;18.90;;;;;;5039449;28;20467;-69
2024/01/19 07:55:21;;;;;;;24.63;13.40;;;1.00;18.90;;;;;;5035667;28;20455;-68
2024/01/19 07:57:48;;;;;;;22.33;14.60;;;1.10;18.90;;;;;;5039340;28;20473;-68
2024/01/19 08:00:16;;;;;;;24.87;14.33;;;1.10;18.70;;;;;;5041776;28;20890;-69
2024/01/19 08:02:44;;;;;;;22.73;12.83;;;1.20;18.70;;;;;;5048011;28;20450;-69
2024/01/19 08:05:11;;;;;;;25.47;15.00;;;1.20;18.40;;;;;;5039575;28;20447;-69
2024/01/19 08:07:40;;;;;;;27.43;16.37;;;1.30;18.30;;;;;;5040582;28;20479;-69
2024/01/19 08:10:09;;;;;;;21.60;14.00;;;1.40;18.20;;;;;;5048275;28;20478;-70
2024/01/19 08:12:36;;;;;;;25.00;15.27;;;1.40;18.00;;;;;;5048660;28;20462;-69
2024/01/19 08:15:02;;;;;;;22.63;13.87;;;1.50;17.90;;;;;;5043761;28;20446;-68
2024/01/19 08:17:30;;;;;;;22.93;14.20;;;1.60;17.70;;;;;;5046622;28;20577;-69
2024/01/19 08:19:56;;;;;;;22.70;14.73;;;1.70;17.60;;;;;;5045874;28;20470;-69
2024/01/19 08:22:23;;;;;;;23.77;13.80;;;1.70;17.30;;;;;;5048558;28;20537;-71
2024/01/19 08:24:50;;;;;;;28.13;14.60;;;1.80;17.20;;;;;;5042671;28;20450;-69
2024/01/19 08:27:18;;;;;;;24.93;14.70;;;1.90;17.10;;;;;;5039475;28;21330;-69
2024/01/19 08:29:47;;;;;;;24.47;14.70;;;1.90;16.90;;;;;;5037033;28;20478;-69
2024/01/19 08:32:14;;;;;;;22.73;13.13;;;2.00;16.80;;;;;;5048348;28;20473;-68
2024/01/19 08:34:43;;;;;;;25.30;14.83;;;2.00;16.40;;;;;;5042501;28;20447;-69
2024/01/19 08:37:09;;;;;;;25.97;14.73;;;2.10;16.30;;;;;;5048703;28;20573;-70
2024/01/19 08:39:37;;;;;;;25.17;14.70;;;2.10;16.10;;;;;;5048521;28;20455;-69
2024/01/19 08:42:06;;;;;;;19.60;12.67;;;2.20;15.90;;;;;;5035224;28;20944;-69
2024/01/19 08:44:34;;;;;;;23.00;13.53;;;2.20;15.80;;;;;;5044883;28;20950;-70
2024/01/19 08:47:01;;;;;;;28.00;12.87;;;2.20;15.60;;;;;;5035690;28;20482;-70
2024/01/19 08:49:29;;;;;;;20.77;13.37;;;2.30;15.50;;;;;;5040308;28;20477;-69
2024/01/19 08:51:56;;;;;;;21.30;13.70;;;2.30;15.40;;;;;;5036111;28;20458;-69
2024/01/19 08:54:23;;;;;;;23.50;13.60;;;2.40;15.10;;;;;;5041124;28;20922;-69
2024/01/19 08:56:50;;;;;;;25.00;15.30;;;2.40;14.80;;;;;;5045500;28;20474;-69
2024/01/19 08:59:17;;;;;;;24.87;15.60;;;2.50;14.80;;;;;;5041859;28;20479;-68
2024/01/19 09:01:46;;;;;;;25.27;15.07;;;2.60;14.50;;;;;;5036281;28;20481;-69
2024/01/19 09:04:13;;;;;;;23.30;13.37;;;2.70;14.40;;;;;;5058791;23;20477;-69
2024/01/19 09:06:40;;;;;;;23.60;13.87;;;2.80;14.20;;;;;;5046346;28;20496;-69
2024/01/19 09:09:08;;;;;;;19.60;13.47;;;2.90;14.00;;;;;;5038910;28;20577;-69
2024/01/19 09:11:35;;;;;;;21.40;14.10;;;3.00;13.70;;;;;;5030133;28;20455;-69
2024/01/19 09:14:02;;;;;;;25.33;14.93;;;3.10;13.60;;;;;;5037890;28;20544;-69
2024/01/19 09:16:29;;;;;;;25.37;14.90;;;3.20;13.10;;;;;;5038670;28;20520;-69
2024/01/19 09:18:58;;;;;;;20.87;14.00;;;3.30;12.80;;;;;;5042676;28;20935;-69
2024/01/19 09:21:24;;;;;;;27.70;16.50;;;3.40;12.70;;;;;;5030747;28;20454;-69
2024/01/19 09:23:51;;;;;;;22.30;14.03;;;3.50;12.30;;;;;;5033151;28;20459;-69
2024/01/19 09:26:19;;;;;;;26.10;15.90;;;3.70;12.00;;;;;;5036205;28;20461;-70
2024/01/19 09:28:46;;;;;;;21.57;14.27;;;3.90;11.90;;;;;;5028315;28;21204;-70
2024/01/19 09:31:13;;;;;;;21.57;14.40;;;4.20;11.50;;;;;;5028393;28;20470;-70
2024/01/19 09:33:40;;;;;;;23.90;14.43;;;4.40;11.10;;;;;;5044988;28;20724;-70
2024/01/19 09:36:09;;;;;;;20.27;14.47;;;4.60;10.70;;;;;;5044110;28;20490;-70
2024/01/19 09:38:37;;;;;;;21.77;13.67;;;4.80;10.40;;;;;;5039913;28;21047;-70
2024/01/19 09:41:13;;;;;;;21.03;14.10;;;5.00;10.00;;;;;;5028978;28;20447;-70
2024/01/19 09:43:42;;;;;;;21.40;14.63;;;5.30;9.50;;;;;;5029353;28;20546;-70
2024/01/19 09:46:18;;;;;;;22.13;13.10;;;5.50;9.40;;;;;;5036514;28;20450;-70
2024/01/19 09:48:51;;;;;;;20.37;14.63;;;6.30;7.70;;;;;;5034037;28;20470;-70
2024/01/19 09:51:23;;;;;;;17.67;12.07;;;6.60;6.70;;;;;;5034423;28;21043;-70
2024/01/19 09:53:54;;;;;;;19.70;14.07;;;6.60;6.20;;;;;;5030881;28;20450;-70
2024/01/19 09:56:21;;;;;;;20.00;12.87;;;6.70;5.70;;;;;;5029381;28;20974;-70
2024/01/19 09:58:55;;;;;;;21.50;13.53;;;6.80;5.50;;;;;;5032003;28;20455;-71
2024/01/19 10:01:22;;;;;;;18.17;13.07;;;7.00;5.20;;;;;;5034956;28;20467;-71
2024/01/19 10:03:53;;;;;;;17.90;12.20;;;7.20;4.90;;;;;;5032497;28;21220;-70
2024/01/19 10:06:21;;;;;;;20.07;12.50;;;7.20;4.70;;;;;;5028746;28;20458;-70
2024/01/19 10:08:48;;;;;;;16.90;11.80;;;7.20;4.30;;;;;;5028322;28;20536;-70
2024/01/19 10:11:15;;;;;;;17.70;12.83;;;7.20;4.20;;;;;;5033306;28;20451;-70
2024/01/19 10:13:42;;;;;;;15.50;12.10;;;7.40;3.80;;;;;;5038735;28;20553;-70
2024/01/19 10:16:09;;;;;;;19.73;12.70;;;7.60;3.90;;;;;;5036158;28;20489;-70
2024/01/19 10:18:36;;;;;;;19.10;12.20;;;7.80;3.70;;;;;;5033486;28;20546;-70
2024/01/19 10:21:05;;;;;;;22.07;12.40;;;8.00;2.80;;;;;;5034392;28;21019;-71
2024/01/19 10:23:33;;;;;;;17.97;12.50;;;8.20;2.00;;;;;;5030749;28;20467;-71
2024/01/19 10:26:14;;;;;;;16.33;11.83;;;8.50;2.50;;;;;;5037985;28;20950;-71
2024/01/19 10:28:41;;;;;;;16.60;11.67;;;8.90;1.70;;;;;;5038030;28;20462;-71
2024/01/19 10:31:18;;;;;;;16.00;11.73;;;9.30;1.20;;;;;;5031357;28;20850;-71
2024/01/19 10:33:56;;;;;;;14.37;9.90;;;9.70;1.00;;;;;;5029995;28;21007;-71
2024/01/19 10:36:23;;;;;;;17.10;10.20;;;10.00;1.00;;;;;;5027746;28;20459;-71
2024/01/19 10:38:51;;;;;;;17.13;10.33;;;10.30;1.00;;;;;;5032665;28;20451;-71
2024/01/19 10:41:25;;;;;;;14.07;11.27;;;10.50;1.00;;;;;;5035930;28;20462;-71
2024/01/19 10:43:52;;;;;;;20.57;12.03;;;10.60;1.00;;;;;;5032043;28;20485;-71
2024/01/19 10:46:23;;;;;;;19.10;11.97;;;10.80;1.00;;;;;;5034580;28;20461;-71
2024/01/19 10:48:50;;;;;;;17.83;12.90;;;11.00;1.00;;;;;;5030649;28;20455;-71
2024/01/19 10:51:21;;;;;;;18.47;11.57;;;11.20;1.00;;;;;;5041158;28;20461;-71
2024/01/19 10:53:49;;;;;;;20.83;12.77;;;11.30;1.00;;;;;;5034456;28;20581;-71
2024/01/19 10:56:22;;;;;;;16.40;11.70;;;11.50;1.00;;;;;;5031672;28;20473;-71
2024/01/19 10:58:49;;;;;;;14.50;11.27;;;11.30;1.00;;;;;;5035557;28;20451;-71
2024/01/19 11:01:18;;;;;;;19.37;11.97;;;11.50;1.00;;;;;;5034142;28;21007;-71
2024/01/19 11:03:45;;;;;;;16.63;11.27;;;11.40;1.00;;;;;;5034707;28;20469;-71
2024/01/19 11:06:12;;;;;;;17.20;11.33;;;11.20;1.00;;;;;;5027878;28;20469;-70
2024/01/19 11:08:40;;;;;;;22.77;13.47;;;11.00;1.00;;;;;;5037309;28;20459;-71
2024/01/19 11:11:09;;;;;;;16.70;11.43;;;10.80;1.00;;;;;;5035334;28;20486;-71
2024/01/19 11:13:41;;;;;;;21.20;13.67;;;11.10;1.00;;;;;;5034194;28;20494;-71
2024/01/19 11:16:12;;;;;;;19.80;12.63;;;11.70;1.00;;;;;;5028201;28;20459;-71
2024/01/19 11:18:39;;;;;;;16.77;12.43;;;12.30;1.00;;;;;;5039032;28;20458;-71
2024/01/19 11:21:07;;;;;;;16.20;12.70;;;12.80;1.00;;;;;;5033588;28;20455;-70
2024/01/19 11:23:35;;;;;;;16.93;12.93;;;12.80;1.00;;;;;;5037235;28;20462;-71
2024/01/19 11:26:13;;;;;;;16.27;12.40;;;12.40;1.00;;;;;;5035725;28;20524;-71
2024/01/19 11:28:52;;;;;;;13.47;8.57;;;11.90;1.00;;;;;;5036682;28;20458;-71
2024/01/19 11:31:22;;;;;;;12.43;8.07;;;11.60;1.00;;;;;;5037124;28;20469;-71
2024/01/19 11:33:49;;;;;;;12.77;8.47;;;11.30;1.00;;;;;;5034797;28;20465;-71
2024/01/19 11:36:47;;;;;;;11.93;8.50;;;11.00;1.00;;;;;;5035612;28;20545;-71
2024/01/19 11:39:43;;;;;;;13.83;9.20;;;10.80;1.00;;;;;;5034509;28;20470;-71
2024/01/19 11:42:30;;;;;;;14.00;7.80;;;10.30;1.00;;;;;;5030705;28;20455;-71
2024/01/19 11:44:59;;;;;;;13.17;7.90;;;10.00;1.00;;;;;;5033885;28;20477;-71
2024/01/19 11:47:40;;;;;;;11.67;7.53;;;9.90;1.00;;;;;;5032379;28;20955;-71
2024/01/19 11:50:09;;;;;;;13.60;8.20;;;9.60;1.00;;;;;;5029264;28;20487;-70
2024/01/19 11:52:41;;;;;;;13.87;8.60;;;9.20;1.00;;;;;;5035395;28;20462;-70
2024/01/19 11:55:42;;;;;;;13.17;8.63;;;8.70;1.00;;;;;;5035431;28;21003;-70
2024/01/19 11:58:31;;;;;;;12.70;9.27;;;8.20;1.00;;;;;;4985855;28;20479;-70
2024/01/19 12:01:02;;;;;;;15.50;8.93;;;8.40;1.00;;;;;;4981413;28;20491;-70
2024/01/19 12:03:29;;;;;;;11.23;6.53;;;9.40;1.00;;;;;;5017400;28;20931;-70
2024/01/19 12:05:59;;;;;;;10.97;6.27;;;10.40;1.00;;;;;;5027436;28;20462;-70
2024/01/19 12:08:27;;;;;;;8.57;5.93;;;11.10;1.00;;;;;;5031909;28;20482;-70
2024/01/19 12:11:08;;;;;;;10.90;6.63;;;11.60;1.00;;;;;;5037703;28;20581;-70
2024/01/19 12:13:37;;;;;;;11.10;6.70;;;11.80;1.00;;;;;;5033588;28;20800;-70
2024/01/19 12:16:07;;;;;;;12.80;7.30;;;11.80;1.00;;;;;;5037922;28;20459;-71
2024/01/19 12:18:34;;;;;;;9.50;5.93;;;12.10;1.00;;;;;;5029889;28;20459;-70
2024/01/19 12:21:02;;;;;;;7.27;4.87;;;12.50;1.00;;;;;;5036362;28;20809;-70
2024/01/19 12:23:30;;;;;;;7.77;4.37;;;12.90;1.00;;;;;;5033877;28;20878;-71
2024/01/19 12:25:58;;;;;;;8.50;4.50;;;13.20;1.00;;;;;;5035625;28;20459;-71
2024/01/19 12:28:25;;;;;;;8.63;5.57;;;13.50;1.00;;;;;;5032984;28;20489;-71
2024/01/19 12:30:52;;;;;;;8.87;5.27;;;13.70;1.00;;;;;;5031011;28;20493;-71
2024/01/19 12:33:25;;;;;;;7.47;4.23;;;14.00;1.00;;;;;;5054082;28;20473;-71
2024/01/19 12:36:06;;;;;;;9.37;5.63;;;14.20;1.00;;;;;;5053060;28;20467;-71
2024/01/19 12:38:34;;;;;;;7.27;4.87;;;14.30;1.00;;;;;;5030351;28;20835;-71
2024/01/19 12:41:03;;;;;;;9.30;5.20;;;14.20;1.00;;;;;;5034779;28;20537;-71
2024/01/19 12:43:31;;;;;;;10.60;5.57;;;14.00;1.00;;;;;;5031632;28;21043;-73
2024/01/19 12:46:02;;;;;;;8.77;5.53;;;13.80;1.00;;;;;;5033272;28;20987;-74
2024/01/19 12:48:30;;;;;;;8.33;5.93;;;13.20;1.00;;;;;;5030131;28;20566;-73